sensor_id;sensor_type;location;lat;lon;timestamp;pressure;altitude;pressure_sealevel;temperature;humidity
68329;BME280;55182;56.864;60.554;2023-07-09T00:01:47;73113.69;;;-143.60;67.81
68329;BME280;55182;56.864;60.554;2023-07-09T00:04:12;73115.69;;;-143.60;68.07
68329;BME280;55182;56.864;60.554;2023-07-09T00:06:38;73117.69;;;-143.60;67.52
68329;BME280;55182;56.864;60.554;2023-07-09T00:09:05;73117.69;;;-143.60;67.57
68329;BME280;55182;56.864;60.554;2023-07-09T00:11:31;73125.72;;;-143.60;67.10
68329;BME280;55182;56.864;60.554;2023-07-09T00:13:57;73123.72;;;-143.60;66.84
68329;BME280;55182;56.864;60.554;2023-07-09T00:16:24;73115.69;;;-143.60;65.96
68329;BME280;55182;56.864;60.554;2023-07-09T00:18:50;73115.69;;;-143.60;65.61
68329;BME280;55182;56.864;60.554;2023-07-09T00:21:16;73113.69;;;-143.60;65.41
68329;BME280;55182;56.864;60.554;2023-07-09T00:23:42;73109.66;;;-143.60;64.91
68329;BME280;55182;56.864;60.554;2023-07-09T00:26:09;73103.63;;;-143.60;63.85
68329;BME280;55182;56.864;60.554;2023-07-09T00:28:35;73091.59;;;-143.60;63.85
68329;BME280;55182;56.864;60.554;2023-07-09T00:31:00;73093.59;;;-143.60;63.13
68329;BME280;55182;56.864;60.554;2023-07-09T00:33:26;73089.59;;;-143.60;62.43
68329;BME280;55182;56.864;60.554;2023-07-09T00:35:51;73087.56;;;-143.60;62.21
68329;BME280;55182;56.864;60.554;2023-07-09T00:38:19;73085.56;;;-143.60;62.36
68329;BME280;55182;56.864;60.554;2023-07-09T00:40:46;73081.56;;;-143.60;62.09
68329;BME280;55182;56.864;60.554;2023-07-09T00:43:13;73069.50;;;-143.60;61.21
68329;BME280;55182;56.864;60.554;2023-07-09T00:45:40;73059.47;;;-143.60;61.01
68329;BME280;55182;56.864;60.554;2023-07-09T00:48:06;73055.44;;;-143.60;60.71
68329;BME280;55182;56.864;60.554;2023-07-09T00:50:42;73043.41;;;-143.60;59.71
68329;BME280;55182;56.864;60.554;2023-07-09T00:53:22;73043.41;;;-143.60;58.76
68329;BME280;55182;56.864;60.554;2023-07-09T00:55:55;73033.34;;;-143.60;58.42
68329;BME280;55182;56.864;60.554;2023-07-09T00:58:24;73021.31;;;-143.60;57.68
68329;BME280;55182;56.864;60.554;2023-07-09T01:00:50;73013.28;;;-143.60;57.32
68329;BME280;55182;56.864;60.554;2023-07-09T01:03:31;73013.28;;;-143.60;57.03
68329;BME280;55182;56.864;60.554;2023-07-09T01:05:59;73009.25;;;-143.60;57.06
68329;BME280;55182;56.864;60.554;2023-07-09T01:08:26;73007.25;;;-143.60;57.46
68329;BME280;55182;56.864;60.554;2023-07-09T01:10:54;72997.22;;;-143.60;57.67
68329;BME280;55182;56.864;60.554;2023-07-09T01:13:19;73005.25;;;-143.60;57.93
68329;BME280;55182;56.864;60.554;2023-07-09T01:15:45;73003.25;;;-143.60;58.25
68329;BME280;55182;56.864;60.554;2023-07-09T01:18:11;73003.25;;;-143.60;58.48
68329;BME280;55182;56.864;60.554;2023-07-09T01:20:37;73005.25;;;-143.60;58.68
68329;BME280;55182;56.864;60.554;2023-07-09T01:23:03;72997.22;;;-143.60;58.90
68329;BME280;55182;56.864;60.554;2023-07-09T01:25:28;72993.19;;;-143.60;58.77
68329;BME280;55182;56.864;60.554;2023-07-09T01:27:54;72993.19;;;-143.60;58.84
68329;BME280;55182;56.864;60.554;2023-07-09T01:30:30;72983.16;;;-143.60;59.37
68329;BME280;55182;56.864;60.554;2023-07-09T01:32:57;72969.09;;;-143.60;59.09
68329;BME280;55182;56.864;60.554;2023-07-09T01:35:24;72967.09;;;-143.60;59.23
68329;BME280;55182;56.864;60.554;2023-07-09T01:37:50;72967.09;;;-143.60;59.25
68329;BME280;55182;56.864;60.554;2023-07-09T01:40:17;72961.06;;;-143.60;59.41
68329;BME280;55182;56.864;60.554;2023-07-09T01:42:43;72955.06;;;-143.60;59.55
68329;BME280;55182;56.864;60.554;2023-07-09T01:45:08;72961.06;;;-143.60;59.02
68329;BME280;55182;56.864;60.554;2023-07-09T01:47:34;72953.03;;;-143.60;58.99
68329;BME280;55182;56.864;60.554;2023-07-09T01:49:59;72945.00;;;-143.60;58.61
68329;BME280;55182;56.864;60.554;2023-07-09T01:52:28;72936.97;;;-143.60;58.52
68329;BME280;55182;56.864;60.554;2023-07-09T01:54:54;72932.97;;;-143.60;58.34
68329;BME280;55182;56.864;60.554;2023-07-09T01:57:24;72926.94;;;-143.60;57.85
68329;BME280;55182;56.864;60.554;2023-07-09T01:59:50;72916.91;;;-143.60;57.43
68329;BME280;55182;56.864;60.554;2023-07-09T02:02:16;72902.84;;;-143.60;57.19
68329;BME280;55182;56.864;60.554;2023-07-09T02:04:42;72892.81;;;-143.60;57.35
68329;BME280;55182;56.864;60.554;2023-07-09T02:07:07;72884.78;;;-143.60;57.24
68329;BME280;55182;56.864;60.554;2023-07-09T02:09:33;72876.75;;;-143.60;57.29
68329;BME280;55182;56.864;60.554;2023-07-09T02:11:58;72868.72;;;-143.60;56.79
68329;BME280;55182;56.864;60.554;2023-07-09T02:14:23;72856.66;;;-143.60;56.82
68329;BME280;55182;56.864;60.554;2023-07-09T02:16:49;72844.63;;;-143.60;56.26
68329;BME280;55182;56.864;60.554;2023-07-09T02:19:15;72836.59;;;-143.60;56.34
68329;BME280;55182;56.864;60.554;2023-07-09T02:21:40;72826.56;;;-143.60;55.58
68329;BME280;55182;56.864;60.554;2023-07-09T02:24:07;72812.50;;;-143.60;55.37
68329;BME280;55182;56.864;60.554;2023-07-09T02:26:32;72808.47;;;-143.60;55.00
68329;BME280;55182;56.864;60.554;2023-07-09T02:28:58;72796.44;;;-143.60;54.98
68329;BME280;55182;56.864;60.554;2023-07-09T02:31:23;72780.38;;;-143.60;54.40
68329;BME280;55182;56.864;60.554;2023-07-09T02:33:48;72774.34;;;-143.60;53.41
68329;BME280;55182;56.864;60.554;2023-07-09T02:36:14;72756.28;;;-143.60;52.78
68329;BME280;55182;56.864;60.554;2023-07-09T02:38:39;72736.19;;;-143.60;52.38
68329;BME280;55182;56.864;60.554;2023-07-09T02:41:05;72720.13;;;-143.60;52.00
68329;BME280;55182;56.864;60.554;2023-07-09T02:43:30;72706.09;;;-143.60;51.22
68329;BME280;55182;56.864;60.554;2023-07-09T02:45:56;72688.00;;;-143.60;51.35
68329;BME280;55182;56.864;60.554;2023-07-09T02:48:21;72675.97;;;-143.60;51.45
68329;BME280;55182;56.864;60.554;2023-07-09T02:50:47;72665.94;;;-143.60;51.04
68329;BME280;55182;56.864;60.554;2023-07-09T02:53:13;72653.88;;;-143.60;50.83
68329;BME280;55182;56.864;60.554;2023-07-09T02:55:38;72639.81;;;-143.60;50.98
68329;BME280;55182;56.864;60.554;2023-07-09T02:58:04;72617.75;;;-143.60;50.34
68329;BME280;55182;56.864;60.554;2023-07-09T03:00:29;72605.69;;;-143.60;49.64
68329;BME280;55182;56.864;60.554;2023-07-09T03:02:55;72587.63;;;-143.60;49.33
68329;BME280;55182;56.864;60.554;2023-07-09T03:05:20;72575.59;;;-143.60;48.81
68329;BME280;55182;56.864;60.554;2023-07-09T03:07:46;72553.50;;;-143.60;48.84
68329;BME280;55182;56.864;60.554;2023-07-09T03:10:12;72547.47;;;-143.60;48.10
68329;BME280;55182;56.864;60.554;2023-07-09T03:12:37;72531.41;;;-143.60;48.20
68329;BME280;55182;56.864;60.554;2023-07-09T03:15:03;72519.38;;;-143.60;48.12
68329;BME280;55182;56.864;60.554;2023-07-09T03:17:29;72503.31;;;-143.60;47.71
68329;BME280;55182;56.864;60.554;2023-07-09T03:19:54;72489.25;;;-143.60;47.82
68329;BME280;55182;56.864;60.554;2023-07-09T03:22:20;72479.22;;;-143.60;47.62
68329;BME280;55182;56.864;60.554;2023-07-09T03:24:46;72463.16;;;-143.60;46.76
68329;BME280;55182;56.864;60.554;2023-07-09T03:27:11;72441.06;;;-143.60;46.96
68329;BME280;55182;56.864;60.554;2023-07-09T03:29:37;72431.03;;;-143.60;46.60
68329;BME280;55182;56.864;60.554;2023-07-09T03:32:02;72414.97;;;-143.60;45.67
68329;BME280;55182;56.864;60.554;2023-07-09T03:34:28;72402.91;;;-143.60;45.88
68329;BME280;55182;56.864;60.554;2023-07-09T03:36:54;72386.88;;;-143.60;45.72
68329;BME280;55182;56.864;60.554;2023-07-09T03:39:19;72366.78;;;-143.60;45.02
68329;BME280;55182;56.864;60.554;2023-07-09T03:41:45;72354.75;;;-143.60;44.59
68329;BME280;55182;56.864;60.554;2023-07-09T03:44:10;72342.69;;;-143.60;44.57
68329;BME280;55182;56.864;60.554;2023-07-09T03:46:36;72330.66;;;-143.60;43.91
68329;BME280;55182;56.864;60.554;2023-07-09T03:49:01;72318.59;;;-143.60;43.33
68329;BME280;55182;56.864;60.554;2023-07-09T03:51:27;72310.56;;;-143.60;42.85
68329;BME280;55182;56.864;60.554;2023-07-09T03:53:52;72306.56;;;-143.60;43.03
68329;BME280;55182;56.864;60.554;2023-07-09T03:56:17;72302.53;;;-143.60;43.60
68329;BME280;55182;56.864;60.554;2023-07-09T03:58:43;72286.47;;;-143.60;43.42
68329;BME280;55182;56.864;60.554;2023-07-09T04:01:09;72274.44;;;-143.60;42.58
68329;BME280;55182;56.864;60.554;2023-07-09T04:03:34;72266.41;;;-143.60;41.02
68329;BME280;55182;56.864;60.554;2023-07-09T04:06:00;72250.34;;;-143.60;41.01
68329;BME280;55182;56.864;60.554;2023-07-09T04:08:25;72246.34;;;-143.60;40.76
68329;BME280;55182;56.864;60.554;2023-07-09T04:10:58;72234.28;;;-143.60;40.56
68329;BME280;55182;56.864;60.554;2023-07-09T04:13:24;72222.25;;;-143.60;40.32
68329;BME280;55182;56.864;60.554;2023-07-09T04:15:49;72220.22;;;-143.60;40.36
68329;BME280;55182;56.864;60.554;2023-07-09T04:18:14;72218.22;;;-143.60;40.90
68329;BME280;55182;56.864;60.554;2023-07-09T04:20:40;72220.22;;;-143.60;40.52
68329;BME280;55182;56.864;60.554;2023-07-09T04:23:06;72214.22;;;-143.60;40.98
68329;BME280;55182;56.864;60.554;2023-07-09T04:25:31;72212.22;;;-143.60;40.67
68329;BME280;55182;56.864;60.554;2023-07-09T04:27:57;72214.22;;;-143.60;41.10
68329;BME280;55182;56.864;60.554;2023-07-09T04:30:22;72210.19;;;-143.60;40.91
68329;BME280;55182;56.864;60.554;2023-07-09T04:32:48;72202.16;;;-143.60;40.46
68329;BME280;55182;56.864;60.554;2023-07-09T04:35:14;72190.13;;;-143.60;40.78
68329;BME280;55182;56.864;60.554;2023-07-09T04:37:40;72180.09;;;-143.60;39.49
68329;BME280;55182;56.864;60.554;2023-07-09T04:40:06;72172.06;;;-143.60;39.53
68329;BME280;55182;56.864;60.554;2023-07-09T04:42:32;72166.03;;;-143.60;39.80
68329;BME280;55182;56.864;60.554;2023-07-09T04:44:58;72166.03;;;-143.60;39.24
68329;BME280;55182;56.864;60.554;2023-07-09T04:47:23;72156.00;;;-143.60;39.36
68329;BME280;55182;56.864;60.554;2023-07-09T04:49:49;72149.97;;;-143.60;39.15
68329;BME280;55182;56.864;60.554;2023-07-09T04:52:14;72149.97;;;-143.60;39.03
68329;BME280;55182;56.864;60.554;2023-07-09T04:54:40;72143.94;;;-143.60;38.15
68329;BME280;55182;56.864;60.554;2023-07-09T04:57:06;72129.91;;;-143.60;37.33
68329;BME280;55182;56.864;60.554;2023-07-09T04:59:32;72117.84;;;-143.60;38.13
68329;BME280;55182;56.864;60.554;2023-07-09T05:01:58;72109.81;;;-143.60;37.95
68329;BME280;55182;56.864;60.554;2023-07-09T05:04:23;72099.78;;;-143.60;37.55
68329;BME280;55182;56.864;60.554;2023-07-09T05:06:49;72093.75;;;-143.60;36.83
68329;BME280;55182;56.864;60.554;2023-07-09T05:09:14;72077.69;;;-143.60;36.18
68329;BME280;55182;56.864;60.554;2023-07-09T05:11:40;72065.66;;;-143.60;36.79
68329;BME280;55182;56.864;60.554;2023-07-09T05:14:06;72049.59;;;-143.60;35.75
68329;BME280;55182;56.864;60.554;2023-07-09T05:16:31;72039.56;;;-143.60;35.21
68329;BME280;55182;56.864;60.554;2023-07-09T05:18:56;72025.50;;;-143.60;35.34
68329;BME280;55182;56.864;60.554;2023-07-09T05:21:22;72025.50;;;-143.60;34.90
68329;BME280;55182;56.864;60.554;2023-07-09T05:23:48;72015.47;;;-143.60;34.73
68329;BME280;55182;56.864;60.554;2023-07-09T05:26:13;72009.44;;;-143.60;34.68
68329;BME280;55182;56.864;60.554;2023-07-09T05:28:39;71993.38;;;-143.60;34.63
68329;BME280;55182;56.864;60.554;2023-07-09T05:31:05;71991.38;;;-143.60;34.96
68329;BME280;55182;56.864;60.554;2023-07-09T05:33:31;71997.41;;;-143.60;34.58
68329;BME280;55182;56.864;60.554;2023-07-09T05:35:56;71987.38;;;-143.60;34.55
68329;BME280;55182;56.864;60.554;2023-07-09T05:38:22;71963.28;;;-143.60;34.13
68329;BME280;55182;56.864;60.554;2023-07-09T05:40:47;71955.25;;;-143.60;34.80
68329;BME280;55182;56.864;60.554;2023-07-09T05:43:13;71953.25;;;-143.60;33.96
68329;BME280;55182;56.864;60.554;2023-07-09T05:45:38;71939.19;;;-143.60;33.92
68329;BME280;55182;56.864;60.554;2023-07-09T05:48:04;71921.13;;;-143.60;34.85
68329;BME280;55182;56.864;60.554;2023-07-09T05:50:32;71915.09;;;-143.60;33.98
68329;BME280;55182;56.864;60.554;2023-07-09T05:52:58;71913.09;;;-143.60;34.08
68329;BME280;55182;56.864;60.554;2023-07-09T05:55:24;71917.13;;;-143.60;33.35
68329;BME280;55182;56.864;60.554;2023-07-09T05:57:49;71915.09;;;-143.60;34.08
68329;BME280;55182;56.864;60.554;2023-07-09T06:00:15;71921.13;;;-143.60;33.86
68329;BME280;55182;56.864;60.554;2023-07-09T06:02:41;71921.13;;;-143.60;33.81
68329;BME280;55182;56.864;60.554;2023-07-09T06:05:07;71913.09;;;-143.60;34.29
68329;BME280;55182;56.864;60.554;2023-07-09T06:07:32;71901.06;;;-143.60;34.26
68329;BME280;55182;56.864;60.554;2023-07-09T06:09:58;71897.03;;;-143.60;34.63
68329;BME280;55182;56.864;60.554;2023-07-09T06:12:23;71883.00;;;-143.60;34.36
68329;BME280;55182;56.864;60.554;2023-07-09T06:14:49;71872.94;;;-143.60;34.28
68329;BME280;55182;56.864;60.554;2023-07-09T06:17:15;71860.91;;;-143.60;34.13
68329;BME280;55182;56.864;60.554;2023-07-09T06:19:40;71848.88;;;-143.60;34.68
68329;BME280;55182;56.864;60.554;2023-07-09T06:22:06;71842.84;;;-143.60;34.30
68329;BME280;55182;56.864;60.554;2023-07-09T06:24:32;71830.78;;;-143.60;33.98
68329;BME280;55182;56.864;60.554;2023-07-09T06:26:58;71824.78;;;-143.60;34.35
68329;BME280;55182;56.864;60.554;2023-07-09T06:29:24;71816.75;;;-143.60;33.81
68329;BME280;55182;56.864;60.554;2023-07-09T06:31:49;71806.72;;;-143.60;33.87
68329;BME280;55182;56.864;60.554;2023-07-09T06:34:15;71798.69;;;-143.60;33.59
68329;BME280;55182;56.864;60.554;2023-07-09T06:36:40;71792.66;;;-143.60;33.45
68329;BME280;55182;56.864;60.554;2023-07-09T06:39:05;71792.66;;;-143.60;33.54
68329;BME280;55182;56.864;60.554;2023-07-09T06:41:31;71784.63;;;-143.60;33.70
68329;BME280;55182;56.864;60.554;2023-07-09T06:43:56;71784.63;;;-143.60;33.52
68329;BME280;55182;56.864;60.554;2023-07-09T06:46:22;71782.63;;;-143.60;33.65
68329;BME280;55182;56.864;60.554;2023-07-09T06:48:47;71780.63;;;-143.60;33.68
68329;BME280;55182;56.864;60.554;2023-07-09T06:51:13;71780.63;;;-143.60;33.46
68329;BME280;55182;56.864;60.554;2023-07-09T06:53:38;71788.66;;;-143.60;33.20
68329;BME280;55182;56.864;60.554;2023-07-09T06:56:04;71782.63;;;-143.60;33.43
68329;BME280;55182;56.864;60.554;2023-07-09T06:58:30;71770.56;;;-143.60;33.52
68329;BME280;55182;56.864;60.554;2023-07-09T07:00:55;71760.53;;;-143.60;33.65
68329;BME280;55182;56.864;60.554;2023-07-09T07:03:21;71744.47;;;-143.60;33.51
68329;BME280;55182;56.864;60.554;2023-07-09T07:05:48;71740.47;;;-143.60;33.23
68329;BME280;55182;56.864;60.554;2023-07-09T07:08:14;71736.44;;;-143.60;33.14
68329;BME280;55182;56.864;60.554;2023-07-09T07:10:39;71730.44;;;-143.60;33.51
68329;BME280;55182;56.864;60.554;2023-07-09T07:13:05;71712.38;;;-143.60;33.55
68329;BME280;55182;56.864;60.554;2023-07-09T07:15:30;71704.34;;;-143.60;33.73
68329;BME280;55182;56.864;60.554;2023-07-09T07:17:56;71692.28;;;-143.60;33.12
68329;BME280;55182;56.864;60.554;2023-07-09T07:20:21;71676.22;;;-143.60;33.19
68329;BME280;55182;56.864;60.554;2023-07-09T07:22:47;71660.19;;;-143.60;33.15
68329;BME280;55182;56.864;60.554;2023-07-09T07:25:12;71650.13;;;-143.60;33.10
68329;BME280;55182;56.864;60.554;2023-07-09T07:27:38;71646.13;;;-143.60;32.90
68329;BME280;55182;56.864;60.554;2023-07-09T07:30:04;71636.09;;;-143.60;32.53
68329;BME280;55182;56.864;60.554;2023-07-09T07:32:30;71640.09;;;-143.60;32.48
68329;BME280;55182;56.864;60.554;2023-07-09T07:34:56;71636.09;;;-143.60;32.54
68329;BME280;55182;56.864;60.554;2023-07-09T07:37:21;71628.06;;;-143.60;32.77
68329;BME280;55182;56.864;60.554;2023-07-09T07:39:47;71618.03;;;-143.60;32.45
68329;BME280;55182;56.864;60.554;2023-07-09T07:42:13;71603.97;;;-143.60;33.62
68329;BME280;55182;56.864;60.554;2023-07-09T07:44:38;71585.91;;;-143.60;32.05
68329;BME280;55182;56.864;60.554;2023-07-09T07:47:04;71585.91;;;-143.60;31.77
68329;BME280;55182;56.864;60.554;2023-07-09T07:49:29;71579.88;;;-143.60;32.17
68329;BME280;55182;56.864;60.554;2023-07-09T07:51:55;71567.84;;;-143.60;31.38
68329;BME280;55182;56.864;60.554;2023-07-09T07:54:20;71551.78;;;-143.60;31.89
68329;BME280;55182;56.864;60.554;2023-07-09T07:56:46;71535.72;;;-143.60;31.41
68329;BME280;55182;56.864;60.554;2023-07-09T07:59:11;71519.69;;;-143.60;31.18
68329;BME280;55182;56.864;60.554;2023-07-09T08:01:37;71491.56;;;-143.60;31.58
68329;BME280;55182;56.864;60.554;2023-07-09T08:04:02;71479.53;;;-143.60;30.75
68329;BME280;55182;56.864;60.554;2023-07-09T08:06:28;71473.50;;;-143.60;30.52
68329;BME280;55182;56.864;60.554;2023-07-09T08:08:53;71471.50;;;-143.60;31.00
68329;BME280;55182;56.864;60.554;2023-07-09T08:11:19;71463.47;;;-143.60;31.18
68329;BME280;55182;56.864;60.554;2023-07-09T08:13:45;71455.44;;;-143.60;31.40
68329;BME280;55182;56.864;60.554;2023-07-09T08:16:11;71443.41;;;-143.60;30.87
68329;BME280;55182;56.864;60.554;2023-07-09T08:18:36;71431.34;;;-143.60;30.37
68329;BME280;55182;56.864;60.554;2023-07-09T08:21:01;71423.34;;;-143.60;30.40
68329;BME280;55182;56.864;60.554;2023-07-09T08:23:27;71421.31;;;-143.60;30.89
68329;BME280;55182;56.864;60.554;2023-07-09T08:25:56;71415.31;;;-143.60;31.00
68329;BME280;55182;56.864;60.554;2023-07-09T08:28:23;71403.25;;;-143.60;30.37
68329;BME280;55182;56.864;60.554;2023-07-09T08:30:52;71403.25;;;-143.60;30.67
68329;BME280;55182;56.864;60.554;2023-07-09T08:33:18;71415.31;;;-143.60;30.45
68329;BME280;55182;56.864;60.554;2023-07-09T08:35:43;71435.38;;;-143.60;30.84
68329;BME280;55182;56.864;60.554;2023-07-09T08:38:09;71431.34;;;-143.60;30.70
68329;BME280;55182;56.864;60.554;2023-07-09T08:40:38;71415.31;;;-143.60;30.40
68329;BME280;55182;56.864;60.554;2023-07-09T08:43:21;71403.25;;;-143.60;30.15
68329;BME280;55182;56.864;60.554;2023-07-09T08:45:50;71391.22;;;-143.60;30.21
68329;BME280;55182;56.864;60.554;2023-07-09T08:50:46;71365.13;;;-143.60;30.85
68329;BME280;55182;56.864;60.554;2023-07-09T08:53:19;71355.09;;;-143.60;29.99
68329;BME280;55182;56.864;60.554;2023-07-09T08:55:46;71333.00;;;-143.60;30.76
68329;BME280;55182;56.864;60.554;2023-07-09T08:58:15;71333.00;;;-143.60;30.14
68329;BME280;55182;56.864;60.554;2023-07-09T09:00:49;71335.03;;;-143.60;30.25
68329;BME280;55182;56.864;60.554;2023-07-09T09:03:39;71324.97;;;-143.60;29.66
68329;BME280;55182;56.864;60.554;2023-07-09T09:06:02;71310.94;;;-143.60;29.90
68329;BME280;55182;56.864;60.554;2023-07-09T09:08:41;71314.94;;;-143.60;28.95
68329;BME280;55182;56.864;60.554;2023-07-09T09:11:12;71302.91;;;-143.60;29.83
68329;BME280;55182;56.864;60.554;2023-07-09T09:13:39;71310.94;;;-143.60;29.54
68329;BME280;55182;56.864;60.554;2023-07-09T09:16:09;71304.91;;;-143.60;29.17
68329;BME280;55182;56.864;60.554;2023-07-09T09:18:42;71290.88;;;-143.60;29.21
68329;BME280;55182;56.864;60.554;2023-07-09T09:23:47;71278.81;;;-143.60;29.35
68329;BME280;55182;56.864;60.554;2023-07-09T09:26:24;71278.81;;;-143.60;28.66
68329;BME280;55182;56.864;60.554;2023-07-09T09:28:50;71262.75;;;-143.60;29.40
68329;BME280;55182;56.864;60.554;2023-07-09T09:31:15;71248.72;;;-143.60;28.81
68329;BME280;55182;56.864;60.554;2023-07-09T09:33:43;71232.66;;;-143.60;29.05
68329;BME280;55182;56.864;60.554;2023-07-09T09:36:24;71212.59;;;-143.60;28.64
68329;BME280;55182;56.864;60.554;2023-07-09T09:38:51;71194.53;;;-143.60;27.69
68329;BME280;55182;56.864;60.554;2023-07-09T09:41:19;71178.47;;;-143.60;27.73
68329;BME280;55182;56.864;60.554;2023-07-09T09:43:46;71162.41;;;-143.60;27.39
68329;BME280;55182;56.864;60.554;2023-07-09T09:46:19;71152.38;;;-143.60;27.82
68329;BME280;55182;56.864;60.554;2023-07-09T09:48:46;71132.31;;;-143.60;27.68
68329;BME280;55182;56.864;60.554;2023-07-09T09:51:12;71096.19;;;-143.60;27.41
68329;BME280;55182;56.864;60.554;2023-07-09T09:53:40;71052.03;;;-143.60;27.44
68329;BME280;55182;56.864;60.554;2023-07-09T09:56:11;71046.00;;;-143.60;27.60
68329;BME280;55182;56.864;60.554;2023-07-09T09:58:39;71070.09;;;-143.60;27.71
68329;BME280;55182;56.864;60.554;2023-07-09T10:01:11;71094.19;;;-143.60;27.55
68329;BME280;55182;56.864;60.554;2023-07-09T10:03:40;71114.25;;;-143.60;27.83
68329;BME280;55182;56.864;60.554;2023-07-09T10:06:14;71130.31;;;-143.60;27.33
68329;BME280;55182;56.864;60.554;2023-07-09T10:08:46;71138.34;;;-143.60;27.64
68329;BME280;55182;56.864;60.554;2023-07-09T10:13:51;71146.34;;;-143.60;27.61
68329;BME280;55182;56.864;60.554;2023-07-09T10:16:34;71148.38;;;-143.60;27.85
68329;BME280;55182;56.864;60.554;2023-07-09T10:21:31;71154.38;;;-143.60;27.60
68329;BME280;55182;56.864;60.554;2023-07-09T10:24:24;71160.41;;;-143.60;27.78
68329;BME280;55182;56.864;60.554;2023-07-09T10:26:50;71166.44;;;-143.60;28.63
68329;BME280;55182;56.864;60.554;2023-07-09T10:37:14;71166.44;;;-143.60;27.46
68329;BME280;55182;56.864;60.554;2023-07-09T10:39:46;71160.41;;;-143.60;27.91
68329;BME280;55182;56.864;60.554;2023-07-09T10:42:16;71154.38;;;-143.60;27.30
68329;BME280;55182;56.864;60.554;2023-07-09T10:44:45;71142.34;;;-143.60;27.25
68329;BME280;55182;56.864;60.554;2023-07-09T10:47:18;71154.38;;;-143.60;26.49
68329;BME280;55182;56.864;60.554;2023-07-09T10:49:49;71156.41;;;-143.60;27.06
68329;BME280;55182;56.864;60.554;2023-07-09T10:52:21;71152.38;;;-143.60;27.28
68329;BME280;55182;56.864;60.554;2023-07-09T10:55:03;71150.38;;;-143.60;26.75
68329;BME280;55182;56.864;60.554;2023-07-09T10:57:43;71152.38;;;-143.60;27.44
68329;BME280;55182;56.864;60.554;2023-07-09T11:00:15;71158.41;;;-143.60;27.20
68329;BME280;55182;56.864;60.554;2023-07-09T11:02:43;71154.38;;;-143.60;26.92
68329;BME280;55182;56.864;60.554;2023-07-09T11:05:09;71154.38;;;-143.60;26.81
68329;BME280;55182;56.864;60.554;2023-07-09T11:07:39;71156.41;;;-143.60;27.39
68329;BME280;55182;56.864;60.554;2023-07-09T11:10:11;71150.38;;;-143.60;27.30
68329;BME280;55182;56.864;60.554;2023-07-09T11:12:42;71152.38;;;-143.60;27.35
68329;BME280;55182;56.864;60.554;2023-07-09T11:15:12;71150.38;;;-143.60;27.28
68329;BME280;55182;56.864;60.554;2023-07-09T11:17:40;71144.34;;;-143.60;27.34
68329;BME280;55182;56.864;60.554;2023-07-09T11:20:07;71142.34;;;-143.60;27.33
68329;BME280;55182;56.864;60.554;2023-07-09T11:22:38;71138.34;;;-143.60;27.38
68329;BME280;55182;56.864;60.554;2023-07-09T11:25:08;71128.28;;;-143.60;27.25
68329;BME280;55182;56.864;60.554;2023-07-09T11:27:44;71126.28;;;-143.60;27.25
68329;BME280;55182;56.864;60.554;2023-07-09T11:30:21;71106.22;;;-143.60;27.06
68329;BME280;55182;56.864;60.554;2023-07-09T11:32:47;71070.09;;;-143.60;25.85
68329;BME280;55182;56.864;60.554;2023-07-09T11:35:19;70963.72;;;-143.60;24.69
68329;BME280;55182;56.864;60.554;2023-07-09T11:37:46;70801.19;;;-143.60;24.03
68329;BME280;55182;56.864;60.554;2023-07-09T11:40:11;70670.72;;;-143.60;23.45
68329;BME280;55182;56.864;60.554;2023-07-09T11:42:46;70550.34;;;-143.60;23.45
68329;BME280;55182;56.864;60.554;2023-07-09T11:45:13;70446.00;;;-143.60;21.82
68329;BME280;55182;56.864;60.554;2023-07-09T11:47:42;70375.75;;;-143.60;21.76
68329;BME280;55182;56.864;60.554;2023-07-09T11:50:21;70339.63;;;-143.60;21.93
68329;BME280;55182;56.864;60.554;2023-07-09T11:52:49;70327.59;;;-143.60;21.63
68329;BME280;55182;56.864;60.554;2023-07-09T11:55:21;70265.41;;;-143.60;21.40
68329;BME280;55182;56.864;60.554;2023-07-09T11:57:59;70243.31;;;-143.60;21.03
68329;BME280;55182;56.864;60.554;2023-07-09T12:00:29;70179.13;;;-143.60;20.92
68329;BME280;55182;56.864;60.554;2023-07-09T12:02:56;70147.00;;;-143.60;21.08
68329;BME280;55182;56.864;60.554;2023-07-09T12:05:26;70122.94;;;-143.60;20.63
68329;BME280;55182;56.864;60.554;2023-07-09T12:07:52;70114.91;;;-143.60;20.92
68329;BME280;55182;56.864;60.554;2023-07-09T12:10:21;70145.00;;;-143.60;20.38
68329;BME280;55182;56.864;60.554;2023-07-09T12:12:46;70173.09;;;-143.60;20.09
68329;BME280;55182;56.864;60.554;2023-07-09T12:15:18;70163.06;;;-143.60;19.94
68329;BME280;55182;56.864;60.554;2023-07-09T12:17:51;70167.06;;;-143.60;20.18
68329;BME280;55182;56.864;60.554;2023-07-09T12:20:18;70191.16;;;-143.60;20.40
68329;BME280;55182;56.864;60.554;2023-07-09T12:22:43;70197.19;;;-143.60;20.69
68329;BME280;55182;56.864;60.554;2023-07-09T12:25:17;70231.28;;;-143.60;20.61
68329;BME280;55182;56.864;60.554;2023-07-09T12:27:44;70211.22;;;-143.60;20.61
68329;BME280;55182;56.864;60.554;2023-07-09T12:30:10;70173.09;;;-143.60;20.58
68329;BME280;55182;56.864;60.554;2023-07-09T12:32:42;70155.03;;;-143.60;20.38
68329;BME280;55182;56.864;60.554;2023-07-09T12:35:12;70106.88;;;-143.60;20.58
68329;BME280;55182;56.864;60.554;2023-07-09T12:37:38;70090.84;;;-143.60;20.00
68329;BME280;55182;56.864;60.554;2023-07-09T12:40:03;70102.88;;;-143.60;20.16
68329;BME280;55182;56.864;60.554;2023-07-09T12:42:30;70110.91;;;-143.60;20.24
68329;BME280;55182;56.864;60.554;2023-07-09T12:44:56;70167.06;;;-143.60;20.15
68329;BME280;55182;56.864;60.554;2023-07-09T12:47:23;70205.19;;;-143.60;20.31
68329;BME280;55182;56.864;60.554;2023-07-09T12:49:49;70233.28;;;-143.60;20.31